createdAt,value
2019-01-15T00:00:23.903Z,81.49
2019-01-15T00:03:39.271Z,81.46
2019-01-15T00:06:54.203Z,81.23
2019-01-15T00:10:11.204Z,81.16
2019-01-15T00:13:26.322Z,81.40
2019-01-15T00:16:42.396Z,81.61
2019-01-15T00:19:57.878Z,81.92
2019-01-15T00:23:13.314Z,82.19
2019-01-15T00:26:28.779Z,81.63
2019-01-15T00:29:44.365Z,81.49
2019-01-15T00:33:02.654Z,81.36
2019-01-15T00:36:18.016Z,81.59
2019-01-15T00:39:33.478Z,81.75
2019-01-15T00:42:48.397Z,81.86
2019-01-15T00:46:03.570Z,81.77
2019-01-15T00:49:20.196Z,81.91
2019-01-15T00:52:35.451Z,81.70
2019-01-15T00:55:50.957Z,81.47
2019-01-15T00:59:06.525Z,81.80
2019-01-15T01:02:21.720Z,81.69
2019-01-15T01:05:36.998Z,81.72
2019-01-15T01:08:52.503Z,81.73
2019-01-15T01:12:08.231Z,81.84
2019-01-15T01:15:23.357Z,82.14
2019-01-15T01:18:39.037Z,82.02
2019-01-15T01:21:54.591Z,82.26
2019-01-15T01:25:09.624Z,82.36
2019-01-15T01:28:24.993Z,82.36
2019-01-15T01:31:40.234Z,82.62
2019-01-15T01:34:56.259Z,82.74
2019-01-15T01:38:11.687Z,82.68
2019-01-15T01:41:27.121Z,82.58
2019-01-15T01:44:42.383Z,82.56
2019-01-15T01:47:58.439Z,82.98
2019-01-15T01:51:13.790Z,82.93
2019-01-15T01:54:29.316Z,82.81
2019-01-15T01:57:44.377Z,82.79
2019-01-15T02:00:59.763Z,82.50
2019-01-15T02:04:15.113Z,82.94
2019-01-15T02:07:30.150Z,82.82
2019-01-15T02:10:45.507Z,82.28
2019-01-15T02:14:00.746Z,82.04
2019-01-15T02:17:16.291Z,82.41
2019-01-15T02:20:31.457Z,82.27
2019-01-15T02:23:46.920Z,82.66
2019-01-15T02:30:41.876Z,82.30
2019-01-15T02:33:57.432Z,81.96
2019-01-15T02:37:12.806Z,81.99
2019-01-15T02:40:28.131Z,82.03
2019-01-15T02:43:43.312Z,82.01
2019-01-15T02:46:58.636Z,82.09
2019-01-15T02:50:13.855Z,82.16
2019-01-15T02:53:29.047Z,81.99
2019-01-15T02:56:44.401Z,81.90
2019-01-15T02:59:59.743Z,82.05
2019-01-15T03:03:14.887Z,82.11
2019-01-15T03:06:30.344Z,81.80
2019-01-15T03:09:46.608Z,82.05
2019-01-15T03:13:01.869Z,82.40
2019-01-15T03:16:17.014Z,82.39
2019-01-15T03:19:32.679Z,83.49
2019-01-15T03:22:47.790Z,83.24
2019-01-15T03:26:03.076Z,83.69
2019-01-15T03:29:19.183Z,84.86
2019-01-15T03:32:34.637Z,85.43
2019-01-15T03:35:49.756Z,84.56
2019-01-15T03:39:08.419Z,84.51
2019-01-15T03:42:23.731Z,84.67
2019-01-15T03:45:38.877Z,84.38
2019-01-15T03:48:54.256Z,84.81
2019-01-15T03:52:09.796Z,84.59
2019-01-15T03:55:24.822Z,84.86
2019-01-15T03:58:39.984Z,84.44
2019-01-15T04:01:55.443Z,83.70
2019-01-15T04:05:11.717Z,83.72
2019-01-15T04:08:27.675Z,84.30
2019-01-15T04:11:44.034Z,84.44
2019-01-15T04:14:59.212Z,83.90
2019-01-15T04:18:14.656Z,84.26
2019-01-15T04:21:30.111Z,84.29
2019-01-15T04:24:46.184Z,83.80
2019-01-15T04:28:01.330Z,83.46
2019-01-15T04:31:17.226Z,82.94
2019-01-15T04:34:32.442Z,82.94
2019-01-15T04:37:47.609Z,82.63
2019-01-15T04:41:03.057Z,82.58
2019-01-15T04:44:18.728Z,82.47
2019-01-15T04:47:33.987Z,82.91
2019-01-15T04:50:49.316Z,82.62
2019-01-15T04:54:05.787Z,82.45
2019-01-15T04:57:21.798Z,83.06
2019-01-15T05:00:37.221Z,83.01
2019-01-15T05:03:51.871Z,83.28
2019-01-15T05:07:07.511Z,83.30
2019-01-15T05:10:23.004Z,83.16
2019-01-15T05:13:38.221Z,83.40
2019-01-15T05:16:54.023Z,84.13
2019-01-15T05:20:11.180Z,84.50
2019-01-15T05:23:26.635Z,85.19
2019-01-15T05:26:41.790Z,85.22
2019-01-15T05:29:57.037Z,84.59
2019-01-15T05:33:13.125Z,84.48
2019-01-15T05:36:28.255Z,84.47
2019-01-15T05:39:43.734Z,84.46
2019-01-15T05:42:59.155Z,84.59
2019-01-15T05:46:14.417Z,84.54
2019-01-15T05:49:30.389Z,84.49
2019-01-15T05:52:45.702Z,84.49
2019-01-15T05:56:01.802Z,84.53
2019-01-15T05:59:17.170Z,84.66
2019-01-15T06:02:33.130Z,84.22
2019-01-15T06:05:48.276Z,84.13
2019-01-15T06:09:03.844Z,83.86
2019-01-15T06:12:18.988Z,83.87
2019-01-15T06:15:34.882Z,83.91
2019-01-15T06:18:50.285Z,85.00
2019-01-15T06:22:05.650Z,85.29
2019-01-15T06:25:20.896Z,85.33
2019-01-15T06:28:36.348Z,85.83
2019-01-15T06:31:51.515Z,85.49
2019-01-15T06:35:07.074Z,85.21
2019-01-15T06:38:22.210Z,85.88
2019-01-15T06:41:37.360Z,85.69
2019-01-15T06:44:52.394Z,85.89
2019-01-15T06:48:08.056Z,85.91
2019-01-15T06:51:23.921Z,85.39
2019-01-15T06:54:39.993Z,85.52
2019-01-15T06:57:55.551Z,85.61
2019-01-15T07:01:11.678Z,85.80
2019-01-15T07:04:27.182Z,85.39
2019-01-15T07:07:42.422Z,85.39
2019-01-15T07:10:57.782Z,85.23
2019-01-15T07:14:12.936Z,85.20
2019-01-15T07:17:28.112Z,85.28
2019-01-15T07:20:44.546Z,85.52
2019-01-15T07:23:59.683Z,85.36
2019-01-15T07:27:15.262Z,84.91
2019-01-15T07:30:51.182Z,84.56
2019-01-15T07:34:06.740Z,84.66
2019-01-15T07:37:22.003Z,84.07
2019-01-15T07:40:37.347Z,84.45
2019-01-15T07:43:52.577Z,84.74
2019-01-15T07:47:07.863Z,84.99
2019-01-15T07:50:24.036Z,84.60
2019-01-15T07:53:40.185Z,84.71
2019-01-15T07:56:55.538Z,84.46
2019-01-15T08:00:14.273Z,84.62
2019-01-15T08:03:29.932Z,84.06
2019-01-15T08:06:45.025Z,83.50
2019-01-15T08:10:00.467Z,83.16
2019-01-15T08:13:16.002Z,83.51
2019-01-15T08:16:31.858Z,83.24
2019-01-15T08:19:47.153Z,83.40
2019-01-15T08:23:03.004Z,82.91
2019-01-15T08:26:18.140Z,82.87
2019-01-15T08:29:33.380Z,82.35
2019-01-15T08:32:48.827Z,81.92
2019-01-15T08:36:04.201Z,81.95
2019-01-15T08:39:20.087Z,81.36
2019-01-15T08:42:35.501Z,81.31
2019-01-15T08:45:51.424Z,81.86
2019-01-15T08:49:09.252Z,81.40
2019-01-15T08:52:24.953Z,81.30
2019-01-15T08:55:40.394Z,80.75
2019-01-15T08:58:56.662Z,80.37
2019-01-15T09:02:12.021Z,79.92
2019-01-15T09:05:27.792Z,80.37
2019-01-15T09:08:43.032Z,79.96
2019-01-15T09:11:58.803Z,79.77
2019-01-15T09:15:15.369Z,79.50
2019-01-15T09:18:31.345Z,78.57
2019-01-15T09:21:46.807Z,78.61
2019-01-15T09:25:01.255Z,78.49
2019-01-15T09:28:16.582Z,78.53
2019-01-15T09:31:32.081Z,78.74
2019-01-15T09:34:47.313Z,78.76
2019-01-15T09:38:03.671Z,79.09
2019-01-15T09:41:18.915Z,79.58
2019-01-15T09:44:34.456Z,79.57
2019-01-15T09:47:56.284Z,79.05
2019-01-15T09:51:10.619Z,79.84
2019-01-15T09:54:26.079Z,79.56
2019-01-15T09:57:41.613Z,78.97
2019-01-15T10:00:57.296Z,78.73
2019-01-15T10:04:12.734Z,78.03
2019-01-15T10:07:28.804Z,77.69
2019-01-15T10:10:44.182Z,77.59
2019-01-15T10:13:59.310Z,76.64
2019-01-15T10:17:14.535Z,76.47
2019-01-15T10:20:29.988Z,75.86
2019-01-15T10:23:45.908Z,75.66
2019-01-15T10:27:01.240Z,74.94
2019-01-15T10:30:21.515Z,74.69
2019-01-15T10:33:42.986Z,74.04
2019-01-15T10:36:55.774Z,74.37
2019-01-15T10:40:11.766Z,74.61
2019-01-15T10:43:27.704Z,74.57
2019-01-15T10:46:42.092Z,73.81
2019-01-15T10:49:57.398Z,74.14
2019-01-15T10:53:12.754Z,74.38
2019-01-15T10:56:28.421Z,75.39
2019-01-15T10:59:43.892Z,74.22
2019-01-15T11:02:59.643Z,73.42
2019-01-15T11:06:15.192Z,71.85
2019-01-15T11:09:31.069Z,73.60
2019-01-15T11:12:46.413Z,73.10
2019-01-15T11:16:02.066Z,71.42
2019-01-15T11:19:17.945Z,72.47
2019-01-15T11:22:33.714Z,74.21
2019-01-15T11:25:48.960Z,73.96
2019-01-15T11:29:04.398Z,72.17
2019-01-15T11:32:19.862Z,71.35
2019-01-15T11:35:35.127Z,70.22
2019-01-15T11:38:50.476Z,71.71
2019-01-15T11:42:06.239Z,70.67
2019-01-15T11:45:21.794Z,70.98
2019-01-15T11:48:37.161Z,70.18
2019-01-15T11:51:52.435Z,70.87
2019-01-15T11:55:08.016Z,71.82
2019-01-15T11:58:23.506Z,73.04
2019-01-15T12:02:03.463Z,71.54
2019-01-15T12:05:35.513Z,71.11
2019-01-15T12:09:08.323Z,71.67
2019-01-15T12:12:47.397Z,71.43
2019-01-15T12:16:20.222Z,72.32
2019-01-15T12:19:55.967Z,70.77
2019-01-15T12:23:22.547Z,71.05
2019-01-15T12:26:54.824Z,70.69
2019-01-15T12:30:22.031Z,70.57
2019-01-15T12:33:56.463Z,71.74
2019-01-15T12:37:49.055Z,70.51
2019-01-15T12:41:37.842Z,70.96
2019-01-15T12:45:07.139Z,70.60
2019-01-15T12:48:40.087Z,70.87
2019-01-15T12:52:14.368Z,68.82
2019-01-15T12:56:06.598Z,70.29
2019-01-15T12:59:39.948Z,69.37
2019-01-15T13:03:11.803Z,69.47
2019-01-15T13:06:45.016Z,69.27
2019-01-15T13:10:20.979Z,69.28
2019-01-15T13:13:57.986Z,69.31
2019-01-15T13:17:24.394Z,69.19
2019-01-15T13:20:50.076Z,69.27
2019-01-15T13:24:27.137Z,69.39
2019-01-15T13:28:00.210Z,69.21
2019-01-15T13:31:45.481Z,69.94
2019-01-15T13:35:19.845Z,69.94
2019-01-15T13:38:52.723Z,69.59
2019-01-15T13:42:21.387Z,70.60
2019-01-15T13:46:00.850Z,70.15
2019-01-15T13:49:29.050Z,69.50
2019-01-15T13:52:52.435Z,70.42
2019-01-15T13:56:25.207Z,70.45
2019-01-15T13:59:57.362Z,71.40
2019-01-15T14:03:20.409Z,71.39
2019-01-15T14:06:59.618Z,71.27
2019-01-15T14:10:36.426Z,72.69
2019-01-15T14:14:13.730Z,72.51
2019-01-15T14:17:47.689Z,71.61
2019-01-15T14:21:30.296Z,71.70
2019-01-15T14:25:02.031Z,71.56
2019-01-15T14:28:36.579Z,71.88
2019-01-15T14:32:05.148Z,71.23
2019-01-15T14:35:33.291Z,71.34
2019-01-15T14:39:05.508Z,71.39
2019-01-15T14:42:45.986Z,71.01
2019-01-15T14:46:26.683Z,71.62
2019-01-15T14:50:00.035Z,71.61
2019-01-15T14:53:45.255Z,72.26
2019-01-15T14:57:14.983Z,72.63
2019-01-15T15:00:46.620Z,71.99
2019-01-15T15:04:10.831Z,72.32
2019-01-15T15:07:56.387Z,72.71
2019-01-15T15:11:29.320Z,72.46
2019-01-15T15:14:55.393Z,72.92
2019-01-15T15:18:21.436Z,73.53
2019-01-15T15:21:51.296Z,74.31
2019-01-15T15:25:18.127Z,73.40
2019-01-15T15:28:55.511Z,74.12
2019-01-15T15:32:44.328Z,73.91
2019-01-15T15:36:17.924Z,74.35
2019-01-15T15:39:51.336Z,74.65
2019-01-15T15:43:24.777Z,74.89
2019-01-15T15:46:56.767Z,75.00
2019-01-15T15:50:21.857Z,75.55
2019-01-15T15:53:50.865Z,75.20
2019-01-15T15:57:34.451Z,75.49
2019-01-15T16:01:13.734Z,75.51
2019-01-15T16:04:47.965Z,75.85
2019-01-15T16:08:19.901Z,75.84
2019-01-15T16:11:51.716Z,76.16
2019-01-15T16:15:16.596Z,75.94
2019-01-15T16:18:51.322Z,76.57
2019-01-15T16:22:23.531Z,76.21
2019-01-15T16:25:56.700Z,76.75
2019-01-15T16:29:28.484Z,77.02
2019-01-15T16:33:01.504Z,76.92
2019-01-15T16:36:40.522Z,76.80
2019-01-15T16:40:14.528Z,76.31
2019-01-15T16:43:57.557Z,76.72
2019-01-15T16:47:18.953Z,76.29
2019-01-15T16:50:42.224Z,76.34
2019-01-15T16:54:19.793Z,76.43
2019-01-15T16:58:11.495Z,76.19
2019-01-15T17:01:56.612Z,76.14
2019-01-15T17:05:45.105Z,76.34
2019-01-15T17:09:18.319Z,76.20
2019-01-15T17:12:53.348Z,77.05
2019-01-15T17:16:33.313Z,76.94
2019-01-15T17:20:00.242Z,76.82
2019-01-15T17:23:32.486Z,76.70
2019-01-15T17:27:17.742Z,76.81
2019-01-15T17:30:44.343Z,76.47
2019-01-15T17:34:34.195Z,76.68
2019-01-15T17:38:10.055Z,76.31
2019-01-15T17:41:46.098Z,76.32
2019-01-15T17:45:19.128Z,76.48
2019-01-15T17:49:01.424Z,76.74
2019-01-15T17:52:34.793Z,76.84
2019-01-15T17:56:02.193Z,76.51
2019-01-15T17:59:41.710Z,76.17
2019-01-15T18:03:10.920Z,76.39
2019-01-15T18:06:40.127Z,76.65
2019-01-15T18:10:12.001Z,76.42
2019-01-15T18:14:01.650Z,76.84
2019-01-15T18:17:37.918Z,76.84
2019-01-15T18:21:14.989Z,77.32
2019-01-15T18:24:57.402Z,76.79
2019-01-15T18:28:30.250Z,77.21
2019-01-15T18:32:04.470Z,77.02
2019-01-15T18:35:50.478Z,77.43
2019-01-15T18:39:24.730Z,76.96
2019-01-15T18:43:14.850Z,77.40
2019-01-15T18:46:57.863Z,77.77
2019-01-15T18:50:25.892Z,77.88
2019-01-15T18:54:08.444Z,78.10
2019-01-15T18:57:50.715Z,77.77
2019-01-15T19:01:33.402Z,78.47
2019-01-15T19:05:15.692Z,79.08
2019-01-15T19:08:52.971Z,78.52
2019-01-15T19:12:32.051Z,78.87
2019-01-15T19:16:05.063Z,78.72
2019-01-15T19:19:47.602Z,78.53
2019-01-15T19:23:28.333Z,78.45
2019-01-15T19:27:07.688Z,78.04
2019-01-15T19:30:41.130Z,77.76
2019-01-15T19:34:13.113Z,77.94
2019-01-15T19:37:46.355Z,78.39
2019-01-15T19:41:25.521Z,78.20
2019-01-15T19:45:11.642Z,78.76
2019-01-15T19:48:41.074Z,78.11
2019-01-15T19:52:14.640Z,77.76
2019-01-15T19:55:43.940Z,78.44
2019-01-15T19:59:18.889Z,78.46
2019-01-15T20:02:45.720Z,78.15
2019-01-15T20:06:18.689Z,77.99
2019-01-15T20:09:51.116Z,78.45
2019-01-15T20:13:27.138Z,78.76
2019-01-15T20:17:18.236Z,78.92
2019-01-15T20:20:53.840Z,78.79
2019-01-15T20:24:26.911Z,78.63
2019-01-15T20:27:59.788Z,78.12
2019-01-15T20:31:45.373Z,78.21
2019-01-15T20:35:16.572Z,77.52
2019-01-15T20:38:49.722Z,77.28
2019-01-15T20:42:17.528Z,77.26
2019-01-15T20:45:59.881Z,77.41
2019-01-15T20:49:31.716Z,77.85
2019-01-15T20:53:04.872Z,77.51
2019-01-15T20:56:42.394Z,77.83
2019-01-15T21:00:10.475Z,77.53
2019-01-15T21:03:52.590Z,77.01
2019-01-15T21:07:32.401Z,77.06
2019-01-15T21:11:04.445Z,77.42
2019-01-15T21:14:37.584Z,78.01
2019-01-15T21:18:10.273Z,79.05
2019-01-15T21:21:54.088Z,79.16
2019-01-15T21:25:37.606Z,78.90
2019-01-15T21:29:14.806Z,79.00
2019-01-15T21:33:00.279Z,79.75
2019-01-15T21:36:33.335Z,79.67
2019-01-15T21:40:15.319Z,79.50
2019-01-15T21:43:42.817Z,79.93
2019-01-15T21:47:29.246Z,79.39
2019-01-15T21:50:55.784Z,78.92
2019-01-15T21:54:37.788Z,79.72
2019-01-15T21:58:14.804Z,79.99
2019-01-15T22:01:40.395Z,79.71
2019-01-15T22:05:17.587Z,79.76
2019-01-15T22:08:49.411Z,79.95
2019-01-15T22:12:16.391Z,79.76
2019-01-15T22:15:48.296Z,79.88
2019-01-15T22:19:28.373Z,79.64
2019-01-15T22:23:00.422Z,79.41
2019-01-15T22:26:28.115Z,79.23
2019-01-15T22:29:58.279Z,79.58
2019-01-15T22:33:30.895Z,79.29
2019-01-15T22:37:04.636Z,78.76
2019-01-15T22:40:43.707Z,78.62
2019-01-15T22:44:20.120Z,78.89
2019-01-15T22:47:55.070Z,79.07
2019-01-15T22:51:26.502Z,78.56
2019-01-15T22:55:06.960Z,78.37
2019-01-15T22:58:59.829Z,78.55
2019-01-15T23:06:18.814Z,79.34
2019-01-15T23:09:41.651Z,79.87
2019-01-15T23:13:17.759Z,79.78
2019-01-15T23:16:56.807Z,79.87
2019-01-15T23:20:27.365Z,80.27
2019-01-15T23:24:01.055Z,80.51
2019-01-15T23:27:31.640Z,81.09
2019-01-15T23:31:03.551Z,80.46
2019-01-15T23:34:28.778Z,80.93
2019-01-15T23:38:03.313Z,80.85
2019-01-15T23:41:35.228Z,81.07
2019-01-15T23:45:15.370Z,80.79
2019-01-15T23:48:58.259Z,80.44
2019-01-15T23:52:31.339Z,80.79
2019-01-15T23:56:03.262Z,80.49
2019-01-15T23:59:39.796Z,80.35
